Time;durP1;ratioP1;P1;durP2;ratioP2;P2;SDS_P1;SDS_P2;PMS_P1;PMS_P2;Temp;Humidity;BMP_temperature;BMP_pressure;BME280_temperature;BME280_humidity;BME280_pressure;Samples;Min_cycle;Max_cycle;Signal;HPM_P1;HPM_P2
2022/12/20 02:15:54;;;;;;;11.83;5.37;;;;;;;-10.01;100.00;102922.16;1816279;77;22683;-81
2022/12/20 02:18:50;;;;;;;11.35;5.17;;;;;;;-9.80;100.00;102920.11;1782692;79;21040;-81
2022/12/20 02:21:41;;;;;;;8.08;4.33;;;;;;;-9.52;100.00;102918.94;1758119;79;21026;-81
2022/12/20 02:24:57;;;;;;;8.50;5.03;;;;;;;-9.28;100.00;102910.50;1778750;77;21037;-81
2022/12/20 02:28:01;;;;;;;10.23;5.53;;;;;;;-9.06;100.00;102905.27;1788855;80;21493;-81
2022/12/20 02:30:46;;;;;;;7.28;4.12;;;;;;;-8.87;100.00;102900.11;1770417;80;21064;-81
2022/12/20 02:33:31;;;;;;;14.65;4.70;;;;;;;-8.68;100.00;102906.48;1770350;78;21481;-82
2022/12/20 02:36:17;;;;;;;9.63;4.92;;;;;;;-8.51;100.00;102896.14;1799329;78;20985;-81
2022/12/20 02:39:03;;;;;;;15.03;5.25;;;;;;;-8.40;100.00;102896.82;1752718;78;20965;-81
2022/12/20 02:41:51;;;;;;;10.93;5.00;;;;;;;-8.26;100.00;102896.78;1760304;79;21001;-81
2022/12/20 02:45:26;;;;;;;9.83;4.67;;;;;;;-8.15;100.00;102895.25;1800946;78;21497;-81
2022/12/20 02:47:32;;;;;;;16.12;5.70;;;;;;;-8.07;100.00;102895.61;1761719;78;21587;-81
2022/12/20 02:50:29;;;;;;;14.80;5.37;;;;;;;-8.00;100.00;102892.94;1788461;78;21041;-82
2022/12/20 02:53:14;;;;;;;8.40;3.85;;;;;;;-7.96;100.00;102890.48;1763223;78;21386;-82
2022/12/20 02:56:36;;;;;;;7.12;4.08;;;;;;;-7.86;100.00;102891.59;1760546;80;20989;-81
2022/12/20 02:59:24;;;;;;;10.63;4.37;;;;;;;-7.79;100.00;102890.69;1780331;79;20970;-82
2022/12/20 03:02:09;;;;;;;8.78;3.92;;;;;;;-7.74;100.00;102885.09;1745215;80;21510;-81
2022/12/20 03:04:55;;;;;;;9.73;4.75;;;;;;;-7.73;100.00;102884.16;1757732;79;21658;-81
2022/12/20 03:07:40;;;;;;;10.28;5.08;;;;;;;-7.69;100.00;102875.02;1747531;80;21054;-82
2022/12/20 03:10:25;;;;;;;10.85;4.97;;;;;;;-7.69;100.00;102875.02;1757510;80;21018;-82
2022/12/20 03:13:10;;;;;;;9.83;4.47;;;;;;;-7.68;100.00;102872.75;1760925;79;21038;-82
2022/12/20 03:15:56;;;;;;;7.80;4.95;;;;;;;-7.65;100.00;102876.53;1748577;81;21037;-82
2022/12/20 03:18:40;;;;;;;10.55;5.00;;;;;;;-7.65;100.00;102869.89;1765748;79;21414;-82
2022/12/20 03:21:26;;;;;;;15.32;5.25;;;;;;;-7.64;100.00;102871.58;1762903;80;20990;-82
2022/12/20 03:24:12;;;;;;;12.45;4.85;;;;;;;-7.65;100.00;102857.46;1725581;81;20988;-82
2022/12/20 03:26:57;;;;;;;12.88;5.30;;;;;;;-7.62;100.00;102860.39;1752378;79;21046;-82
2022/12/20 03:29:44;;;;;;;11.90;5.40;;;;;;;-7.64;100.00;102849.02;1747166;79;21449;-82
2022/12/20 03:32:30;;;;;;;11.93;5.33;;;;;;;-7.63;100.00;102844.94;1751382;79;21465;-82
2022/12/20 03:35:15;;;;;;;9.73;5.15;;;;;;;-7.62;100.00;102840.47;1761272;80;21009;-82
2022/12/20 03:37:59;;;;;;;7.45;5.22;;;;;;;-7.63;100.00;102831.66;1750458;79;20991;-82
2022/12/20 03:40:44;;;;;;;11.88;5.28;;;;;;;-7.62;100.00;102834.68;1746864;79;20966;-82
2022/12/20 03:43:29;;;;;;;10.43;4.87;;;;;;;-7.62;100.00;102833.84;1771265;79;21072;-82
2022/12/20 03:46:14;;;;;;;11.68;5.10;;;;;;;-7.63;100.00;102829.48;1755563;80;21026;-82
2022/12/20 03:48:59;;;;;;;11.65;4.87;;;;;;;-7.59;100.00;102820.34;1761496;79;20954;-82
2022/12/20 03:51:44;;;;;;;11.28;4.67;;;;;;;-7.54;100.00;102818.71;1744340;78;21002;-83
2022/12/20 03:54:28;;;;;;;9.10;4.50;;;;;;;-7.52;100.00;102809.69;1750094;80;21018;-82
2022/12/20 03:57:28;;;;;;;10.10;4.75;;;;;;;-7.49;100.00;102808.18;1777645;79;20961;-81
2022/12/20 04:00:15;;;;;;;7.28;4.37;;;;;;;-7.48;100.00;102805.88;1757425;80;21509;-82
2022/12/20 04:03:00;;;;;;;10.28;4.90;;;;;;;-7.47;100.00;102792.97;1765722;79;21013;-82
2022/12/20 04:05:45;;;;;;;8.95;5.53;;;;;;;-7.46;100.00;102788.53;1753242;80;20984;-82
2022/12/20 04:08:30;;;;;;;7.80;3.80;;;;;;;-7.43;100.00;102778.53;1773183;79;21418;-82
2022/12/20 04:11:15;;;;;;;10.82;4.65;;;;;;;-7.37;100.00;102778.58;1771413;79;20985;-82
2022/12/20 04:14:01;;;;;;;13.10;5.55;;;;;;;-7.27;100.00;102774.37;1774496;79;21016;-82
2022/12/20 04:16:47;;;;;;;11.20;5.97;;;;;;;-7.19;100.00;102769.36;1754089;79;20966;-82
2022/12/20 04:19:32;;;;;;;8.18;4.90;;;;;;;-7.10;100.00;102763.87;1770483;79;20978;-82
2022/12/20 04:22:17;;;;;;;8.00;4.05;;;;;;;-7.02;100.00;102767.31;1750358;80;20995;-82
2022/12/20 04:25:04;;;;;;;9.70;4.20;;;;;;;-6.93;100.00;102768.85;1772168;79;20986;-82
2022/12/20 04:27:50;;;;;;;10.38;4.50;;;;;;;-6.86;100.00;102777.74;1773133;79;21418;-82
2022/12/20 04:30:35;;;;;;;19.45;5.35;;;;;;;-6.82;100.00;102776.09;1780282;80;20974;-82
2022/12/20 04:33:21;;;;;;;7.58;4.45;;;;;;;-6.78;100.00;102774.89;1749963;80;20974;-82
2022/12/20 04:36:06;;;;;;;11.43;4.58;;;;;;;-6.73;100.00;102786.54;1766668;80;21468;-83
2022/12/20 04:38:52;;;;;;;10.68;4.95;;;;;;;-6.68;100.00;102783.55;1762064;81;21129;-83
2022/12/20 04:41:37;;;;;;;6.67;3.65;;;;;;;-6.64;100.00;102781.06;1766741;79;21019;-83
2022/12/20 04:44:23;;;;;;;10.60;5.22;;;;;;;-6.64;100.00;102780.57;1795072;79;21014;-83
2022/12/20 04:47:09;;;;;;;8.80;5.17;;;;;;;-6.64;100.00;102776.58;1766732;79;21367;-83
2022/12/20 04:49:54;;;;;;;8.73;4.42;;;;;;;-6.62;100.00;102780.47;1762373;79;20988;-83
2022/12/20 04:55:43;;;;;;;9.53;4.35;;;;;;;-6.67;100.00;102787.94;1778010;77;20986;-82
2022/12/20 04:58:28;;;;;;;9.28;5.33;;;;;;;-6.72;100.00;102777.62;1756660;79;21002;-82
2022/12/20 05:01:12;;;;;;;13.18;5.12;;;;;;;-6.78;100.00;102768.73;1756021;79;21369;-82
2022/12/20 05:03:59;;;;;;;12.15;4.97;;;;;;;-6.82;100.00;102769.93;1788954;79;21054;-82
2022/12/20 05:06:45;;;;;;;10.32;4.37;;;;;;;-6.84;100.00;102763.86;1784154;78;21538;-82
2022/12/20 05:09:31;;;;;;;12.13;4.83;;;;;;;-6.87;100.00;102769.37;1736186;80;21043;-82
2022/12/20 05:12:16;;;;;;;10.55;3.98;;;;;;;-6.92;100.00;102770.57;1762751;79;20998;-82
2022/12/20 05:15:03;;;;;;;12.28;4.40;;;;;;;-6.93;100.00;102766.19;1771237;79;21023;-82
2022/12/20 05:17:48;;;;;;;8.60;4.78;;;;;;;-6.93;100.00;102763.53;1760257;78;21409;-81
2022/12/20 05:20:32;;;;;;;6.95;4.42;;;;;;;-6.96;100.00;102757.11;1745313;80;21018;-82
2022/12/20 05:26:24;;;;;;;9.15;5.17;;;;;;;-7.03;100.00;102745.70;1766828;78;20988;-82
2022/12/20 05:29:09;;;;;;;15.53;4.92;;;;;;;-7.04;100.00;102743.52;1746094;79;21110;-82
2022/12/20 05:31:53;;;;;;;12.30;5.62;;;;;;;-7.09;100.00;102736.36;1755268;79;20999;-82
2022/12/20 05:34:38;;;;;;;8.00;4.10;;;;;;;-7.09;100.00;102744.33;1761138;79;21066;-82
2022/12/20 05:37:24;;;;;;;9.23;4.08;;;;;;;-7.06;100.00;102737.45;1784392;79;21006;-81
2022/12/20 05:40:10;;;;;;;10.93;4.10;;;;;;;-7.03;100.00;102733.73;1775970;79;20994;-82
2022/12/20 05:42:55;;;;;;;7.25;4.30;;;;;;;-7.05;100.00;102728.52;1758238;79;20987;-82
2022/12/20 05:45:49;;;;;;;9.08;3.80;;;;;;;-7.02;100.00;102724.34;1746144;79;21007;-82
2022/12/20 05:48:35;;;;;;;9.60;4.00;;;;;;;-6.97;100.00;102725.34;1756068;79;21034;-82
2022/12/20 05:51:22;;;;;;;6.55;3.47;;;;;;;-6.94;100.00;102722.46;1737688;79;21034;-82
2022/12/20 05:54:15;;;;;;;9.35;3.83;;;;;;;-6.94;100.00;102724.63;1765270;79;21192;-82
2022/12/20 05:57:04;;;;;;;12.28;5.60;;;;;;;-6.96;100.00;102715.91;1765547;79;21053;-83
2022/12/20 08:05:52;;;;;;;8.00;3.20;;;;;;;-3.65;100.00;102528.42;1805376;77;27100;-82
2022/12/20 08:08:41;;;;;;;8.05;2.67;;;;;;;-3.60;100.00;102531.05;1784073;80;21006;-83
2022/12/20 08:11:27;;;;;;;4.60;2.08;;;;;;;-3.47;100.00;102526.29;1767694;80;21033;-82
2022/12/20 08:14:11;;;;;;;5.65;2.98;;;;;;;-3.37;100.00;102524.14;1780964;80;20978;-83
2022/12/20 08:16:59;;;;;;;5.47;2.25;;;;;;;-3.23;100.00;102520.25;1765903;80;21448;-82
2022/12/20 08:19:44;;;;;;;6.25;2.67;;;;;;;-3.09;100.00;102520.69;1757751;80;21002;-82
2022/12/20 08:22:28;;;;;;;3.98;2.08;;;;;;;-2.96;100.00;102519.08;1771745;80;20979;-84
2022/12/20 08:25:13;;;;;;;5.28;2.40;;;;;;;-2.81;100.00;102511.48;1766524;79;21575;-84
2022/12/20 08:28:00;;;;;;;3.83;1.95;;;;;;;-2.67;100.00;102511.06;1773730;80;21008;-84
2022/12/20 08:30:45;;;;;;;2.98;1.85;;;;;;;-2.53;100.00;102499.56;1770780;79;21007;-83
2022/12/20 08:33:31;;;;;;;5.20;2.05;;;;;;;-2.40;100.00;102499.62;1789765;78;20987;-84
2022/12/20 08:36:16;;;;;;;4.05;2.40;;;;;;;-2.27;100.00;102489.93;1709534;82;21061;-84
2022/12/20 08:39:04;;;;;;;8.15;2.65;;;;;;;-2.13;100.00;102469.02;1678495;83;20998;-85
2022/12/20 08:41:49;;;;;;;6.50;2.50;;;;;;;-2.04;100.00;102460.95;1754223;79;20947;-85
2022/12/20 08:44:34;;;;;;;3.92;2.12;;;;;;;-1.91;100.00;102456.59;1771223;79;21008;-85
2022/12/20 08:47:18;;;;;;;4.35;1.60;;;;;;;-1.74;100.00;102452.28;1764064;79;21023;-85
2022/12/20 08:50:05;;;;;;;5.90;2.08;;;;;;;-1.60;100.00;102448.27;1735819;80;21053;-84
2022/12/20 08:52:50;;;;;;;3.77;1.87;;;;;;;-1.43;100.00;102443.92;1709217;82;21480;-83
2022/12/20 08:55:34;;;;;;;3.62;1.98;;;;;;;-1.31;100.00;102430.14;1747249;80;21615;-83
2022/12/20 08:58:20;;;;;;;6.78;1.80;;;;;;;-1.19;100.00;102419.16;1770427;80;21459;-85
2022/12/20 09:01:07;;;;;;;4.28;1.67;;;;;;;-1.09;100.00;102421.27;1756383;80;21015;-86
2022/12/20 09:03:51;;;;;;;1.92;1.40;;;;;;;-1.01;100.00;102422.70;1759563;80;21022;-84
2022/12/20 09:06:36;;;;;;;2.52;1.60;;;;;;;-0.91;100.00;102418.08;1740566;80;20973;-83
2022/12/20 09:09:21;;;;;;;6.53;1.70;;;;;;;-0.80;100.00;102413.46;1767569;79;21509;-84
2022/12/20 09:12:06;;;;;;;8.85;2.47;;;;;;;-0.69;100.00;102411.88;1773713;80;21564;-83
2022/12/20 09:14:51;;;;;;;4.28;1.32;;;;;;;-0.57;100.00;102407.06;1774285;79;21043;-82
2022/12/20 09:17:36;;;;;;;5.83;1.80;;;;;;;-0.49;100.00;102390.52;1771125;80;21002;-82
2022/12/20 09:20:20;;;;;;;4.35;1.98;;;;;;;-0.41;100.00;102376.80;1750338;80;21084;-84
2022/12/20 09:23:05;;;;;;;5.85;1.90;;;;;;;-0.31;100.00;102371.64;1754578;79;20974;-83
2022/12/20 09:25:49;;;;;;;5.28;1.82;;;;;;;-0.18;100.00;102360.95;1768148;80;20991;-83
2022/12/20 09:28:34;;;;;;;8.60;1.67;;;;;;;-0.07;100.00;102356.13;1767643;79;20971;-85
2022/12/20 09:31:21;;;;;;;4.25;1.52;;;;;;;0.04;100.00;102350.11;1769318;80;21615;-84
2022/12/20 09:34:05;;;;;;;6.00;2.00;;;;;;;0.13;100.00;102343.77;1768294;80;20959;-85
2022/12/20 09:36:50;;;;;;;3.47;1.90;;;;;;;0.25;100.00;102338.89;1782913;79;20983;-85
2022/12/20 09:39:35;;;;;;;3.30;1.75;;;;;;;0.34;100.00;102330.67;1774799;79;20964;-85
2022/12/20 09:42:21;;;;;;;3.37;1.45;;;;;;;0.39;100.00;102324.80;1755255;80;21458;-85
2022/12/20 09:45:08;;;;;;;2.75;1.45;;;;;;;0.49;100.00;102313.89;1755754;80;20998;-86
2022/12/20 09:47:52;;;;;;;2.98;1.87;;;;;;;0.63;100.00;102317.27;1767364;80;21038;-86
2022/12/20 09:51:05;;;;;;;2.55;1.70;;;;;;;0.76;100.00;102310.03;1767632;79;20987;-86
2022/12/20 09:54:27;;;;;;;5.80;2.12;;;;;;;0.89;100.00;102314.41;1761730;77;20970;-88
2022/12/20 09:57:29;;;;;;;3.77;1.37;;;;;;;0.98;100.00;102316.57;1768236;79;21058;-89
2022/12/20 10:00:16;;;;;;;3.27;2.10;;;;;;;1.06;100.00;102315.20;1750383;79;21009;-88
2022/12/20 10:03:04;;;;;;;6.28;2.33;;;;;;;1.10;100.00;102304.44;1769960;80;21018;-89
2022/12/20 10:05:54;;;;;;;2.12;1.20;;;;;;;1.12;100.00;102301.07;1759799;79;21021;-88
2022/12/20 10:09:04;;;;;;;5.20;1.47;;;;;;;1.15;100.00;102293.98;1763426;80;20975;-89
2022/12/20 10:12:12;;;;;;;3.25;1.50;;;;;;;1.21;100.00;102305.92;1764174;80;21524;-89
2022/12/20 10:15:19;;;;;;;4.55;1.90;;;;;;;1.24;100.00;102298.35;1773047;79;21316;-91
2022/12/20 10:18:30;;;;;;;3.67;1.50;;;;;;;1.33;96.14;102292.94;1770715;79;20970;-90
2022/12/20 10:21:46;;;;;;;2.47;1.32;;;;;;;1.38;95.32;102299.98;1776904;79;21833;-90
2022/12/20 10:24:32;;;;;;;3.40;1.37;;;;;;;1.47;90.50;102289.01;1670478;82;21039;-89
2022/12/20 10:27:18;;;;;;;2.52;1.32;;;;;;;1.59;94.92;102281.39;1758197;80;20991;-89
2022/12/20 10:30:13;;;;;;;2.70;1.60;;;;;;;1.68;92.80;102272.74;1765436;80;21042;-91
2022/12/20 10:32:58;;;;;;;3.50;1.60;;;;;;;1.78;93.74;102259.05;1767490;80;21030;-90
2022/12/20 10:35:43;;;;;;;3.00;1.52;;;;;;;1.83;89.58;102245.88;1751697;80;20998;-91
2022/12/20 10:38:32;;;;;;;3.50;1.77;;;;;;;1.87;91.15;102247.22;1755343;80;21035;-90
2022/12/20 10:41:19;;;;;;;4.78;1.60;;;;;;;1.87;94.32;102235.09;1742379;80;21038;-90
2022/12/20 10:44:07;;;;;;;3.00;1.65;;;;;;;1.88;92.95;102224.62;1764855;80;21085;-90
2022/12/20 10:46:57;;;;;;;2.90;1.55;;;;;;;1.84;96.55;102216.06;1708553;82;21658;-91
2022/12/20 10:49:41;;;;;;;2.98;1.27;;;;;;;1.85;98.07;102209.64;1769005;78;20991;-92
2022/12/20 10:52:26;;;;;;;2.72;1.30;;;;;;;1.92;94.49;102220.55;1764579;80;21092;-90
2022/12/20 10:55:36;;;;;;;4.92;1.60;;;;;;;1.97;93.11;102200.64;1740397;80;21047;-90
2022/12/20 10:58:31;;;;;;;2.67;1.42;;;;;;;2.02;93.13;102196.05;1763768;78;21062;-90
2022/12/20 11:01:18;;;;;;;2.80;1.37;;;;;;;2.06;93.30;102183.38;1711131;82;21035;-91
2022/12/20 11:04:22;;;;;;;5.55;1.67;;;;;;;2.10;86.99;102182.50;1695349;82;20971;-91
2022/12/20 11:07:25;;;;;;;4.97;1.50;;;;;;;2.13;87.49;102165.47;1696748;82;21057;-90
2022/12/20 11:10:21;;;;;;;;;;;;;;;2.19;87.02;102165.75;1759771;79;21008;-91
2022/12/20 11:13:05;;;;;;;2.90;1.27;;;;;;;2.24;85.01;102157.95;1774825;80;20155;-90
2022/12/20 11:15:54;;;;;;;4.05;1.20;;;;;;;2.26;82.78;102151.87;1767771;80;20987;-90
2022/12/20 11:18:52;;;;;;;2.02;1.25;;;;;;;2.30;79.05;102149.11;1735375;80;21038;-91
2022/12/20 11:21:45;;;;;;;3.77;1.25;;;;;;;2.28;80.43;102139.88;1756521;80;21473;-91
2022/12/20 11:25:00;;;;;;;4.40;1.50;;;;;;;2.30;81.28;102134.28;1773270;80;21018;-91
2022/12/20 11:28:29;;;;;;;3.27;1.35;;;;;;;2.28;82.87;102126.39;1736523;81;21000;-90
2022/12/20 11:31:24;;;;;;;2.12;1.12;;;;;;;2.28;82.55;102132.30;1725732;81;21070;-91
2022/12/20 11:34:54;;;;;;;4.25;1.27;;;;;;;2.28;84.01;102123.69;1707431;82;21038;-91
2022/12/20 11:38:11;;;;;;;3.60;1.20;;;;;;;2.28;82.68;102118.30;1760591;80;21010;-91
2022/12/20 11:41:23;;;;;;;1.80;1.07;;;;;;;2.31;82.27;102113.05;1769776;80;21046;-90
2022/12/20 11:44:51;;;;;;;2.70;1.40;;;;;;;2.34;81.59;102114.02;1769036;79;20988;-89
2022/12/20 11:48:27;;;;;;;4.10;1.50;;;;;;;2.34;78.27;102109.45;1707637;82;21034;-90
2022/12/20 11:51:34;;;;;;;3.37;1.60;;;;;;;2.38;76.10;102111.28;1705881;80;21063;-90
2022/12/20 11:54:25;;;;;;;2.17;1.30;;;;;;;2.41;73.50;102093.38;1737948;80;21010;-92
2022/12/20 11:57:17;;;;;;;1.90;1.25;;;;;;;2.42;72.36;102086.94;1757716;80;21050;-92
2022/12/20 14:05:47;;;;;;;3.52;1.62;;;;;;;0.64;95.77;101954.38;1793428;77;28942;-89
2022/12/20 14:08:33;;;;;;;2.77;1.50;;;;;;;0.61;97.48;101950.19;1745465;80;21049;-89
2022/12/20 14:11:25;;;;;;;4.83;3.05;;;;;;;0.64;98.83;101944.95;1752612;80;20970;-90
2022/12/20 14:14:10;;;;;;;7.42;1.90;;;;;;;0.68;98.23;101936.88;1769280;80;21550;-90
2022/12/20 14:16:54;;;;;;;2.65;1.27;;;;;;;0.71;100.00;101927.60;1756571;80;21030;-89
2022/12/20 14:19:39;;;;;;;1.98;1.50;;;;;;;0.73;99.04;101918.34;1717821;83;21034;-89
2022/12/20 14:22:24;;;;;;;4.25;1.50;;;;;;;0.78;99.88;101927.22;1694087;83;21667;-89
2022/12/20 14:25:08;;;;;;;6.33;1.90;;;;;;;0.80;100.00;101923.34;1705619;82;21497;-90
2022/12/20 14:27:53;;;;;;;2.42;1.25;;;;;;;0.84;97.13;101917.94;1680928;84;21014;-89
2022/12/20 14:30:42;;;;;;;4.00;1.55;;;;;;;0.91;97.07;101922.59;1726052;82;20987;-89
2022/12/20 14:33:38;;;;;;;2.60;1.55;;;;;;;0.95;96.12;101918.53;1688500;81;21587;-89
2022/12/20 14:36:22;;;;;;;2.85;1.50;;;;;;;0.99;96.52;101911.75;1774599;80;21007;-89
2022/12/20 14:39:33;;;;;;;2.92;1.62;;;;;;;0.99;99.80;101913.09;1759469;80;21543;-89
2022/12/20 14:42:18;;;;;;;2.95;1.45;;;;;;;1.00;98.57;101919.66;1770981;80;21065;-89
2022/12/20 14:45:17;;;;;;;3.02;1.27;;;;;;;1.03;97.33;101922.50;1757375;81;21025;-89
2022/12/20 14:48:07;;;;;;;3.77;1.72;;;;;;;1.03;98.47;101917.11;1765484;80;21030;-89
2022/12/20 14:50:52;;;;;;;3.95;1.92;;;;;;;1.02;100.00;101916.80;1767971;80;21022;-89
2022/12/20 14:53:38;;;;;;;3.10;1.82;;;;;;;1.00;100.00;101911.58;1726233;81;21053;-90
2022/12/20 14:56:23;;;;;;;2.98;1.70;;;;;;;1.05;100.00;101912.39;1713620;82;21035;-89
2022/12/20 14:59:15;;;;;;;3.60;1.65;;;;;;;1.05;100.00;101902.97;1722096;82;21008;-90
2022/12/20 15:02:23;;;;;;;2.65;1.40;;;;;;;1.04;100.00;101906.17;1715039;83;21039;-88
2022/12/20 15:05:28;;;;;;;5.20;1.67;;;;;;;1.04;100.00;101899.45;1700099;83;21043;-89
2022/12/20 15:08:27;;;;;;;4.80;1.57;;;;;;;1.02;100.00;101900.64;1701268;83;21041;-89
2022/12/20 15:11:18;;;;;;;3.98;1.90;;;;;;;1.03;100.00;101894.23;1781859;80;20997;-89
2022/12/20 15:14:39;;;;;;;4.15;2.05;;;;;;;1.01;100.00;101901.64;1787749;80;21069;-90
2022/12/20 15:17:22;;;;;;;3.30;1.70;;;;;;;0.99;100.00;101889.73;1757465;80;21504;-89
2022/12/20 15:20:13;;;;;;;4.45;1.70;;;;;;;1.00;100.00;101897.29;1756952;81;21033;-89
2022/12/20 15:22:58;;;;;;;4.47;2.20;;;;;;;0.97;100.00;101890.93;1759717;80;21025;-90
2022/12/20 15:25:43;;;;;;;4.20;1.98;;;;;;;0.97;100.00;101882.85;1735380;81;21011;-89
2022/12/20 15:28:28;;;;;;;5.60;2.30;;;;;;;0.96;100.00;101886.55;1756894;81;21470;-88
2022/12/20 15:31:15;;;;;;;3.77;1.60;;;;;;;0.93;100.00;101876.98;1751712;80;20978;-90
2022/12/20 15:34:01;;;;;;;2.45;1.45;;;;;;;0.93;100.00;101866.21;1732449;82;21062;-89
2022/12/20 15:36:46;;;;;;;4.05;1.92;;;;;;;0.93;100.00;101864.03;1721693;82;20971;-89
2022/12/20 15:39:32;;;;;;;3.15;1.87;;;;;;;0.88;100.00;101853.81;1735388;82;21057;-90
2022/12/20 15:42:17;;;;;;;3.95;1.90;;;;;;;0.88;100.00;101851.12;1746330;82;21409;-90
2022/12/20 15:45:01;;;;;;;6.45;2.40;;;;;;;0.89;100.00;101850.60;1727407;82;21405;-89
2022/12/20 15:47:47;;;;;;;5.17;2.30;;;;;;;0.89;100.00;101831.77;1785556;80;21482;-89
2022/12/20 15:50:32;;;;;;;7.42;2.70;;;;;;;0.89;100.00;101822.34;1782910;80;21041;-88
2022/12/20 15:53:21;;;;;;;7.12;2.33;;;;;;;0.90;100.00;101830.77;1788787;80;21037;-87
2022/12/20 15:56:05;;;;;;;6.92;2.50;;;;;;;0.90;100.00;101821.34;1778289;80;21579;-88
2022/12/20 15:58:53;;;;;;;4.17;2.20;;;;;;;0.90;100.00;101818.14;1772574;79;20986;-89
2022/12/20 16:01:38;;;;;;;4.70;2.00;;;;;;;0.89;100.00;101808.89;1762988;79;21006;-88
2022/12/20 16:04:23;;;;;;;4.45;1.60;;;;;;;0.88;100.00;101808.06;1739340;81;21490;-88
2022/12/20 16:07:10;;;;;;;4.95;2.05;;;;;;;0.86;100.00;101806.87;1730393;81;21006;-90
2022/12/20 16:09:54;;;;;;;5.30;2.37;;;;;;;0.86;100.00;101802.84;1692157;81;21797;-90
2022/12/20 16:12:40;;;;;;;10.38;2.58;;;;;;;0.85;100.00;101802.53;1696227;81;21038;-90
2022/12/20 16:15:24;;;;;;;5.78;2.60;;;;;;;0.85;100.00;101801.19;1722338;83;21463;-90
2022/12/20 16:18:09;;;;;;;3.77;1.98;;;;;;;0.85;100.00;101803.05;1723917;83;21053;-90
2022/12/20 16:20:54;;;;;;;4.35;2.33;;;;;;;0.85;100.00;101807.91;1710134;83;21003;-91
2022/12/20 16:23:39;;;;;;;3.33;2.10;;;;;;;0.88;100.00;101800.50;1766644;80;21271;-90
2022/12/20 16:26:25;;;;;;;5.60;2.42;;;;;;;0.89;100.00;101811.58;1723497;83;21006;-89
2022/12/20 16:29:09;;;;;;;4.47;2.45;;;;;;;0.89;100.00;101816.48;1723849;83;20994;-88
2022/12/20 16:31:54;;;;;;;4.03;2.22;;;;;;;0.89;100.00;101814.27;1696122;83;21019;-89
2022/12/20 16:34:38;;;;;;;4.53;2.50;;;;;;;0.90;100.00;101824.03;1695675;81;21038;-91
2022/12/20 16:37:22;;;;;;;5.35;2.22;;;;;;;0.94;100.00;101830.70;1696057;84;21500;-89
2022/12/20 16:40:09;;;;;;;6.47;2.92;;;;;;;0.94;100.00;101836.09;1731084;81;21017;-90
2022/12/20 16:42:54;;;;;;;3.42;1.85;;;;;;;0.91;100.00;101828.39;1722959;83;21026;-89
2022/12/20 16:45:39;;;;;;;4.70;2.47;;;;;;;0.91;100.00;101823.00;1707392;83;21487;-90
2022/12/20 16:48:24;;;;;;;4.65;2.37;;;;;;;0.93;100.00;101835.77;1703158;83;21503;-89
2022/12/20 16:51:39;;;;;;;6.22;2.33;;;;;;;0.93;100.00;101829.87;1752895;80;20951;-89
2022/12/20 16:54:24;;;;;;;8.05;2.60;;;;;;;0.94;100.00;101828.02;1752418;81;21113;-89
2022/12/20 16:57:08;;;;;;;4.92;2.58;;;;;;;0.93;100.00;101822.31;1743972;80;21021;-89
2022/12/20 16:59:53;;;;;;;6.45;2.55;;;;;;;0.93;100.00;101827.70;1771094;80;21026;-89
2022/12/20 17:02:38;;;;;;;4.78;2.52;;;;;;;0.93;100.00;101826.36;1723478;83;21073;-89
2022/12/20 17:05:27;;;;;;;5.70;3.10;;;;;;;0.91;100.00;101823.00;1722061;82;21006;-89
2022/12/20 17:08:12;;;;;;;5.83;3.15;;;;;;;0.89;100.00;101819.17;1690984;83;21018;-90
2022/12/20 17:10:57;;;;;;;5.47;2.70;;;;;;;0.86;100.00;101809.58;1714259;82;21549;-89
2022/12/20 17:13:43;;;;;;;4.47;2.17;;;;;;;0.86;100.00;101809.58;1716373;82;21038;-89
2022/12/20 17:16:28;;;;;;;5.10;2.60;;;;;;;0.86;100.00;101813.61;1697449;84;20985;-88
2022/12/20 17:19:13;;;;;;;4.20;2.62;;;;;;;0.83;100.00;101809.95;1761507;80;21574;-90
2022/12/20 17:21:58;;;;;;;5.30;2.30;;;;;;;0.80;100.00;101806.80;1697890;83;20993;-89
2022/12/20 17:24:42;;;;;;;7.80;2.47;;;;;;;0.79;100.00;101807.31;1704920;83;21045;-90
2022/12/20 17:27:26;;;;;;;4.95;2.30;;;;;;;0.78;100.00;101801.58;1705750;83;20968;-90
2022/12/20 17:30:12;;;;;;;3.45;2.40;;;;;;;0.76;100.00;101796.89;1761710;80;20978;-89
2022/12/20 17:32:56;;;;;;;3.33;2.20;;;;;;;0.76;100.00;101798.23;1770033;80;21062;-90
2022/12/20 17:35:41;;;;;;;8.73;2.75;;;;;;;0.76;100.00;101793.36;1718735;82;21600;-89
2022/12/20 17:38:28;;;;;;;4.35;2.10;;;;;;;0.75;100.00;101797.09;1705010;82;21069;-91
2022/12/20 17:41:25;;;;;;;4.20;2.27;;;;;;;0.72;100.00;101795.59;1716060;82;21025;-90
2022/12/20 17:44:26;;;;;;;4.87;2.50;;;;;;;0.70;100.00;101790.90;1711368;81;21604;-91
2022/12/20 17:47:11;;;;;;;3.50;2.15;;;;;;;0.70;100.00;101784.17;1707109;82;21026;-90
2022/12/20 17:49:55;;;;;;;6.50;2.30;;;;;;;0.69;100.00;101793.76;1749838;81;21132;-91
2022/12/20 17:52:41;;;;;;;5.12;3.17;;;;;;;0.65;100.00;101783.88;1739717;81;21002;-90
2022/12/20 17:55:26;;;;;;;5.90;3.10;;;;;;;0.64;100.00;101784.39;1704320;83;21377;-90
2022/12/20 20:04:48;;;;;;;9.55;3.75;;;;;;;-1.27;100.00;101653.34;1808106;77;28939;-91
2022/12/20 20:07:33;;;;;;;15.45;6.92;;;;;;;-1.26;100.00;101650.97;1767362;80;21001;-90
2022/12/20 20:10:18;;;;;;;14.87;5.15;;;;;;;-1.18;100.00;101645.09;1765463;80;21037;-91
2022/12/20 20:13:06;;;;;;;9.48;3.75;;;;;;;-1.10;100.00;101637.52;1714125;80;21014;-89
2022/12/20 20:15:55;;;;;;;8.10;4.00;;;;;;;-1.04;100.00;101632.79;1722102;82;21049;-90
2022/12/20 20:18:40;;;;;;;5.70;3.12;;;;;;;-0.96;100.00;101633.29;1692262;82;22330;-90
2022/12/20 20:21:24;;;;;;;8.95;4.03;;;;;;;-0.85;100.00;101637.42;1708033;82;21057;-90
2022/12/20 20:24:09;;;;;;;8.35;2.98;;;;;;;-0.79;100.00;101628.66;1703867;82;21033;-90
2022/12/20 20:26:54;;;;;;;6.28;3.47;;;;;;;-0.74;100.00;101624.45;1715107;81;21085;-91
2022/12/20 20:29:39;;;;;;;6.33;3.25;;;;;;;-0.68;100.00;101621.05;1717793;82;21022;-90
2022/12/20 20:32:24;;;;;;;5.12;2.65;;;;;;;-0.64;100.00;101614.84;1712910;82;21527;-88
2022/12/20 20:35:09;;;;;;;6.08;2.80;;;;;;;-0.59;100.00;101613.80;1731071;82;21053;-89
2022/12/20 20:37:55;;;;;;;8.73;3.70;;;;;;;-0.54;100.00;101611.41;1709811;82;21018;-89
2022/12/20 20:40:39;;;;;;;8.68;4.22;;;;;;;-0.50;100.00;101611.88;1705069;82;21508;-89
2022/12/20 20:43:24;;;;;;;8.10;3.40;;;;;;;-0.47;100.00;101609.69;1716092;82;21021;-89
2022/12/20 20:46:11;;;;;;;6.90;3.17;;;;;;;-0.44;100.00;101614.70;1730692;82;20977;-89
2022/12/20 20:48:56;;;;;;;7.15;3.37;;;;;;;-0.36;100.00;101621.03;1731210;82;21073;-90
2022/12/20 20:51:41;;;;;;;10.10;3.42;;;;;;;-0.33;100.00;101617.98;1726939;82;21396;-89
2022/12/20 20:54:25;;;;;;;7.28;3.87;;;;;;;-0.31;100.00;101613.27;1720661;79;21105;-90
2022/12/20 20:57:10;;;;;;;9.53;3.55;;;;;;;-0.28;100.00;101622.30;1726706;82;21034;-89
2022/12/20 20:59:57;;;;;;;4.67;2.85;;;;;;;-0.26;100.00;101614.91;1733272;81;21066;-89
2022/12/20 21:02:41;;;;;;;8.48;3.75;;;;;;;-0.20;100.00;101616.86;1713882;82;21049;-90
2022/12/20 21:05:27;;;;;;;7.33;3.05;;;;;;;-0.16;100.00;101610.13;1736284;82;21528;-89
2022/12/20 21:08:14;;;;;;;6.05;2.67;;;;;;;-0.14;100.00;101611.30;1713277;81;21507;-90
2022/12/20 21:11:05;;;;;;;9.45;2.98;;;;;;;-0.12;100.00;101603.38;1709751;82;21044;-89
2022/12/20 21:13:50;;;;;;;6.08;3.08;;;;;;;-0.10;100.00;101596.47;1724537;82;21034;-90
2022/12/20 21:16:35;;;;;;;5.85;3.20;;;;;;;-0.11;100.00;101598.33;1709131;82;21072;-90
2022/12/20 21:19:20;;;;;;;5.95;3.33;;;;;;;-0.11;100.00;101601.01;1684671;83;21480;-90
2022/12/20 21:22:05;;;;;;;5.78;2.55;;;;;;;-0.06;100.00;101596.44;1716456;82;21009;-89
2022/12/20 21:24:49;;;;;;;8.15;3.70;;;;;;;-0.06;100.00;101593.23;1712076;82;21027;-89
2022/12/20 21:27:34;;;;;;;5.97;3.10;;;;;;;-0.03;100.00;101595.55;1711182;82;21053;-88
2022/12/20 21:30:18;;;;;;;6.08;2.62;;;;;;;-0.03;100.00;101595.55;1747961;81;20985;-91
2022/12/20 21:33:03;;;;;;;7.50;2.92;;;;;;;0.01;100.00;101591.19;1720619;79;20985;-89
2022/12/20 21:35:48;;;;;;;5.83;3.25;;;;;;;0.05;100.00;101589.78;1717167;81;21080;-89
2022/12/20 21:38:34;;;;;;;6.90;3.02;;;;;;;0.05;100.00;101579.89;1718768;81;20989;-90
2022/12/20 21:41:21;;;;;;;7.22;3.77;;;;;;;0.13;100.00;101584.35;1716976;81;21670;-91